HSH weather

Henderson Executive Airport
Las Vegas, Nevada, United States

Public forecast

Using degrees Fahrenheit for public forecast. Weather courtesy of forecast.io.

Current aviation weather report (METAR) for Henderson Executive Airport

Retrieved 2020/07/04 22:56 UTC (46 minutes ago):

KHND 042256Z 23008G16KT 10SM CLR 40/02 A2991 RMK AO2 SLP110 T04000017

Aviation forecast (TAF) for Henderson Executive Airport

Retrieved 2020/07/04 18:30 UTC (5 hours ago):

TAF KHND 041727Z 0418/0518 VRB05KT P6SM SKC FM041900 20013G22KT P6SM SKC FM050300 19010KT P6SM SKC FM051500 VRB05KT P6SM SKC